createdAt,value
2023-03-28T00:01:32.189Z,101446.66
2023-03-28T00:04:05.049Z,101445.53
2023-03-28T00:06:35.035Z,101444.97
2023-03-28T00:09:04.514Z,101446.97
2023-03-28T00:11:34.684Z,101456.25
2023-03-28T00:14:05.300Z,101462.78
2023-03-28T00:16:36.667Z,101471.75
2023-03-28T00:19:11.837Z,101466.72
2023-03-28T00:21:47.613Z,101470.59
2023-03-28T00:24:21.435Z,101482.06
2023-03-28T00:26:54.860Z,101479.31
2023-03-28T00:29:26.388Z,101489.22
2023-03-28T00:31:55.740Z,101489.53
2023-03-28T00:34:27.921Z,101499.16
2023-03-28T00:36:57.249Z,101499.53
2023-03-28T00:39:27.889Z,101507.97
2023-03-28T00:41:57.549Z,101507.69
2023-03-28T00:44:46.253Z,101504.75
2023-03-28T00:47:27.340Z,101510.63
2023-03-28T00:50:03.698Z,101509.41
2023-03-28T00:52:39.219Z,101518.44
2023-03-28T00:55:13.725Z,101523.84
2023-03-28T00:57:43.621Z,101519.44
2023-03-28T01:00:17.086Z,101523.13
2023-03-28T01:02:51.476Z,101527.06
2023-03-28T01:05:27.759Z,101532.84
2023-03-28T01:08:01.543Z,101532.31
2023-03-28T01:10:31.132Z,101540.84
2023-03-28T01:13:01.741Z,101537.38
2023-03-28T01:15:32.765Z,101545.25
2023-03-28T01:18:10.860Z,101547.72
2023-03-28T01:21:08.686Z,101554.88
2023-03-28T01:24:12.640Z,101553.69
2023-03-28T01:26:50.474Z,101557.00
2023-03-28T01:30:01.078Z,101558.38
2023-03-28T01:33:06.780Z,101568.56
2023-03-28T01:36:06.698Z,101563.56
2023-03-28T01:38:43.683Z,101576.47
2023-03-28T01:41:22.452Z,101582.50
2023-03-28T01:44:00.478Z,101581.28
2023-03-28T01:46:34.242Z,101584.53
2023-03-28T01:49:11.706Z,101592.22
2023-03-28T01:51:58.743Z,101601.63
2023-03-28T01:54:36.302Z,101596.19
2023-03-28T01:57:13.651Z,101598.00
2023-03-28T01:59:46.638Z,101604.34
2023-03-28T02:02:23.232Z,101596.19
2023-03-28T02:04:57.202Z,101597.81
2023-03-28T02:07:28.920Z,101606.38
2023-03-28T02:10:02.014Z,101607.00
2023-03-28T02:12:37.252Z,101610.78
2023-03-28T02:15:12.861Z,101610.41
2023-03-28T02:17:46.555Z,101612.69
2023-03-28T02:20:19.916Z,101620.78
2023-03-28T02:22:54.116Z,101618.78
2023-03-28T02:25:26.568Z,101613.16
2023-03-28T02:28:00.549Z,101623.53
2023-03-28T02:30:30.238Z,101621.75
2023-03-28T02:33:03.828Z,101624.78
2023-03-28T02:35:49.015Z,101629.81
2023-03-28T02:38:27.267Z,101621.66
2023-03-28T02:41:08.007Z,101629.81
2023-03-28T02:43:55.260Z,101626.81
2023-03-28T02:46:39.226Z,101628.00
2023-03-28T02:49:23.230Z,101632.63
2023-03-28T02:52:00.968Z,101635.56
2023-03-28T02:54:37.262Z,101639.75
2023-03-28T02:57:16.786Z,101643.03
2023-03-28T02:59:52.770Z,101641.56
2023-03-28T03:02:23.787Z,101644.41
2023-03-28T03:04:57.811Z,101649.06
2023-03-28T03:07:27.925Z,101656.41
2023-03-28T03:09:57.548Z,101654.56
2023-03-28T03:12:29.518Z,101662.03
2023-03-28T03:15:01.284Z,101650.44
2023-03-28T03:17:31.182Z,101662.53
2023-03-28T03:20:06.693Z,101658.94
2023-03-28T03:22:36.580Z,101663.94
2023-03-28T03:25:08.482Z,101669.72
2023-03-28T03:27:41.135Z,101664.72
2023-03-28T03:30:12.042Z,101671.38
2023-03-28T03:32:41.471Z,101665.31
2023-03-28T03:35:10.989Z,101671.69
2023-03-28T03:37:40.423Z,101678.09
2023-03-28T03:40:11.628Z,101671.47
2023-03-28T03:42:43.645Z,101680.47
2023-03-28T03:45:14.007Z,101677.25
2023-03-28T03:47:43.352Z,101678.31
2023-03-28T03:50:14.021Z,101681.09
2023-03-28T03:52:43.368Z,101690.59
2023-03-28T03:55:12.709Z,101686.16
2023-03-28T03:57:44.630Z,101685.28
2023-03-28T04:00:17.102Z,101691.78
2023-03-28T04:02:46.985Z,101692.81
2023-03-28T04:05:16.384Z,101687.31
2023-03-28T04:07:46.358Z,101692.63
2023-03-28T04:10:15.944Z,101690.81
2023-03-28T04:12:48.152Z,101692.19
2023-03-28T04:15:17.927Z,101694.34
2023-03-28T04:17:50.482Z,101688.34
2023-03-28T04:20:21.317Z,101696.16
2023-03-28T04:22:50.928Z,101692.69
2023-03-28T04:25:20.608Z,101698.88
2023-03-28T04:27:54.890Z,101711.03
2023-03-28T04:30:25.992Z,101703.22
2023-03-28T04:32:55.439Z,101699.75
2023-03-28T04:35:25.685Z,101707.28
2023-03-28T04:37:57.978Z,101708.91
2023-03-28T04:40:28.769Z,101713.91
2023-03-28T04:43:00.731Z,101709.06
2023-03-28T04:45:30.315Z,101710.41
2023-03-28T04:47:59.712Z,101711.59
2023-03-28T04:50:29.145Z,101711.56
2023-03-28T04:52:58.470Z,101720.88
2023-03-28T04:55:28.744Z,101728.50
2023-03-28T04:58:01.047Z,101735.31
2023-03-28T05:00:30.651Z,101728.69
2023-03-28T05:03:01.005Z,101736.81
2023-03-28T05:05:30.697Z,101747.59
2023-03-28T05:08:00.923Z,101739.94
2023-03-28T05:10:30.407Z,101744.47
2023-03-28T05:13:03.639Z,101756.91
2023-03-28T05:15:33.044Z,101750.78
2023-03-28T05:18:03.948Z,101762.41
2023-03-28T05:20:33.972Z,101755.75
2023-03-28T05:23:03.835Z,101753.44
2023-03-28T05:25:33.270Z,101762.09
2023-03-28T05:28:05.625Z,101759.59
2023-03-28T05:30:34.971Z,101773.53
2023-03-28T05:33:04.476Z,101770.88
2023-03-28T05:35:34.060Z,101785.16
2023-03-28T05:38:03.404Z,101785.97
2023-03-28T05:40:32.898Z,101783.34
2023-03-28T05:43:06.178Z,101783.16
2023-03-28T05:45:35.693Z,101783.66
2023-03-28T05:48:05.164Z,101782.19
2023-03-28T05:50:34.541Z,101788.13
2023-03-28T05:53:04.029Z,101788.97
2023-03-28T05:55:35.432Z,101784.63
2023-03-28T05:58:07.985Z,101793.94
2023-03-28T06:00:37.478Z,101794.47
2023-03-28T06:03:07.947Z,101800.25
2023-03-28T06:05:37.876Z,101792.13
2023-03-28T06:08:09.484Z,101798.59
2023-03-28T06:10:39.087Z,101801.91
2023-03-28T06:13:11.750Z,101801.09
2023-03-28T06:15:41.613Z,101798.25
2023-03-28T06:18:11.006Z,101803.56
2023-03-28T06:20:40.391Z,101805.25
2023-03-28T06:23:09.720Z,101800.41
2023-03-28T06:25:39.054Z,101805.56
2023-03-28T06:28:11.365Z,101805.25
2023-03-28T06:30:41.700Z,101806.53
2023-03-28T06:33:11.132Z,101808.72
2023-03-28T06:35:40.582Z,101797.91
2023-03-28T06:38:10.011Z,101802.22
2023-03-28T06:40:39.355Z,101798.94
2023-03-28T06:43:11.332Z,101804.09
2023-03-28T06:45:41.108Z,101819.34
2023-03-28T06:48:10.939Z,101821.47
2023-03-28T06:50:40.336Z,101829.16
2023-03-28T06:53:09.703Z,101838.63
2023-03-28T06:55:39.204Z,101828.31
2023-03-28T06:58:11.401Z,101830.47
2023-03-28T07:00:41.460Z,101844.91
2023-03-28T07:03:11.203Z,101841.41
2023-03-28T07:05:42.488Z,101839.75
2023-03-28T07:08:13.210Z,101843.25
2023-03-28T07:10:44.033Z,101848.03
2023-03-28T07:13:16.888Z,101847.34
2023-03-28T07:15:47.247Z,101848.03
2023-03-28T07:18:16.614Z,101852.00
2023-03-28T07:20:51.982Z,101853.38
2023-03-28T07:23:30.915Z,101852.31
2023-03-28T07:26:00.275Z,101861.94
2023-03-28T07:28:32.216Z,101864.25
2023-03-28T07:31:04.749Z,101867.56
2023-03-28T07:33:37.287Z,101869.38
2023-03-28T07:36:12.707Z,101883.50
2023-03-28T07:38:42.186Z,101885.00
2023-03-28T07:41:11.633Z,101887.16
2023-03-28T07:43:43.574Z,101898.78
2023-03-28T07:46:15.211Z,101886.81
2023-03-28T07:48:46.742Z,101898.41
2023-03-28T07:51:16.747Z,101895.91
2023-03-28T07:53:46.433Z,101902.94
2023-03-28T07:56:15.794Z,101913.03
2023-03-28T07:58:48.615Z,101903.03
2023-03-28T08:01:18.944Z,101907.31
2023-03-28T08:03:48.438Z,101908.97
2023-03-28T08:06:31.466Z,101907.84
2023-03-28T08:09:03.294Z,101911.78
2023-03-28T08:11:32.594Z,101908.09
2023-03-28T08:14:05.006Z,101914.41
2023-03-28T08:16:34.721Z,101920.66
2023-03-28T08:21:39.383Z,101913.28
2023-03-28T08:24:14.052Z,101927.16
2023-03-28T08:26:48.697Z,101915.25
2023-03-28T08:29:20.752Z,101911.38
2023-03-28T08:31:50.825Z,101920.88
2023-03-28T08:34:20.440Z,101925.63
2023-03-28T08:36:49.986Z,101921.06
2023-03-28T08:39:19.397Z,101920.25
2023-03-28T08:42:05.907Z,101921.91
2023-03-28T08:44:51.100Z,101916.47
2023-03-28T08:47:25.489Z,101918.25
2023-03-28T08:49:59.708Z,101919.75
2023-03-28T08:52:30.552Z,101927.94
2023-03-28T08:55:03.305Z,101923.38
2023-03-28T08:57:35.703Z,101923.38
2023-03-28T09:00:17.263Z,101926.78
2023-03-28T09:02:48.599Z,101921.34
2023-03-28T09:05:23.689Z,101938.41
2023-03-28T09:07:59.958Z,101930.75
2023-03-28T09:10:34.181Z,101932.88
2023-03-28T09:13:17.325Z,101936.03
2023-03-28T09:16:09.089Z,101936.13
2023-03-28T09:18:58.067Z,101935.59
2023-03-28T09:21:34.058Z,101939.06
2023-03-28T09:24:19.870Z,101936.69
2023-03-28T09:26:54.849Z,101934.56
2023-03-28T09:29:29.714Z,101933.72
2023-03-28T09:32:06.370Z,101927.81
2023-03-28T09:34:41.127Z,101924.31
2023-03-28T09:37:21.594Z,101924.97
2023-03-28T09:39:53.963Z,101919.34
2023-03-28T09:42:32.930Z,101915.38
2023-03-28T09:45:08.042Z,101905.34
2023-03-28T09:47:40.201Z,101917.50
2023-03-28T09:50:14.088Z,101908.31
2023-03-28T09:52:43.708Z,101912.38
2023-03-28T09:55:19.639Z,101924.53
2023-03-28T09:58:05.214Z,101923.84
2023-03-28T10:00:39.122Z,101925.53
2023-03-28T10:03:23.360Z,101928.06
2023-03-28T10:05:53.750Z,101931.59
2023-03-28T10:08:28.915Z,101932.06
2023-03-28T10:11:03.341Z,101935.19
2023-03-28T10:13:40.492Z,101933.34
2023-03-28T10:16:13.090Z,101931.88
2023-03-28T10:18:45.995Z,101936.38
2023-03-28T10:21:19.576Z,101937.69
2023-03-28T10:23:55.476Z,101934.84
2023-03-28T10:26:27.609Z,101944.22
2023-03-28T10:29:03.714Z,101943.50
2023-03-28T10:31:36.803Z,101948.56
2023-03-28T10:34:08.934Z,101942.28
2023-03-28T10:36:44.641Z,101946.38
2023-03-28T10:39:24.865Z,101964.31
2023-03-28T10:41:58.686Z,101962.72
2023-03-28T10:44:30.560Z,101966.09
2023-03-28T10:47:04.202Z,101967.22
2023-03-28T10:49:43.818Z,101970.88
2023-03-28T10:52:25.389Z,101957.91
2023-03-28T10:55:06.459Z,101958.91
2023-03-28T10:57:46.134Z,101960.69
2023-03-28T11:00:21.427Z,101965.44
2023-03-28T11:03:14.001Z,101970.78
2023-03-28T11:06:05.720Z,101962.78
2023-03-28T11:08:54.257Z,101961.69
2023-03-28T11:11:38.047Z,101957.66
2023-03-28T11:14:21.066Z,101958.56
2023-03-28T11:16:59.099Z,101947.69
2023-03-28T11:19:45.337Z,101956.47
2023-03-28T11:22:27.024Z,101945.22
2023-03-28T11:25:06.588Z,101945.13
2023-03-28T11:27:45.157Z,101943.84
2023-03-28T11:30:18.732Z,101944.88
2023-03-28T11:32:53.662Z,101955.00
2023-03-28T11:35:29.099Z,101946.06
2023-03-28T11:38:05.393Z,101948.19
2023-03-28T11:40:40.039Z,101952.94
2023-03-28T11:43:12.535Z,101949.81
2023-03-28T11:45:52.097Z,101951.59
2023-03-28T11:48:25.916Z,101947.38
2023-03-28T11:51:05.179Z,101949.66
2023-03-28T11:53:45.922Z,101939.44
2023-03-28T11:56:26.727Z,101941.53
2023-03-28T11:58:59.035Z,101938.78
2023-03-28T12:01:32.668Z,101929.47
2023-03-28T12:04:08.186Z,101928.09
2023-03-28T12:06:52.302Z,101931.97
2023-03-28T12:09:38.950Z,101928.19
2023-03-28T12:12:15.449Z,101923.41
2023-03-28T12:14:53.265Z,101928.66
2023-03-28T12:17:26.296Z,101931.41
2023-03-28T12:19:57.797Z,101923.94
2023-03-28T12:22:32.712Z,101921.66
2023-03-28T12:25:10.741Z,101925.50
2023-03-28T12:27:53.518Z,101918.72
2023-03-28T12:30:30.102Z,101922.00
2023-03-28T12:33:07.345Z,101919.63
2023-03-28T12:35:45.940Z,101927.63
2023-03-28T12:38:24.936Z,101928.66
2023-03-28T12:41:04.029Z,101925.97
2023-03-28T12:43:44.249Z,101930.16
2023-03-28T12:46:16.101Z,101923.13
2023-03-28T12:48:47.978Z,101931.69
2023-03-28T12:51:20.661Z,101937.22
2023-03-28T12:54:03.825Z,101932.25
2023-03-28T12:56:36.343Z,101931.41
2023-03-28T12:59:37.531Z,101934.34
2023-03-28T13:02:14.172Z,101934.00
2023-03-28T13:04:50.653Z,101929.28
2023-03-28T13:07:26.539Z,101928.28
2023-03-28T13:10:04.596Z,101923.66
2023-03-28T13:12:57.112Z,101929.66
2023-03-28T13:15:32.998Z,101932.78
2023-03-28T13:18:28.186Z,101928.56
2023-03-28T13:20:57.826Z,101928.91
2023-03-28T13:23:37.148Z,101933.25
2023-03-28T13:26:08.859Z,101928.66
2023-03-28T13:28:46.586Z,101927.09
2023-03-28T13:31:23.391Z,101929.84
2023-03-28T13:33:58.780Z,101925.69
2023-03-28T13:36:30.864Z,101929.38
2023-03-28T13:39:11.420Z,101926.34
2023-03-28T13:41:59.481Z,101916.41
2023-03-28T13:44:39.217Z,101906.53
2023-03-28T13:47:09.042Z,101904.97
2023-03-28T13:49:46.368Z,101897.72
2023-03-28T13:52:20.855Z,101897.91
2023-03-28T13:54:54.373Z,101891.03
2023-03-28T13:57:26.477Z,101894.38
2023-03-28T14:00:01.506Z,101881.38
2023-03-28T14:02:38.712Z,101884.72
2023-03-28T14:05:17.506Z,101882.84
2023-03-28T14:07:46.906Z,101878.28
2023-03-28T14:10:24.868Z,101871.88
2023-03-28T14:12:56.043Z,101876.97
2023-03-28T14:15:31.584Z,101874.66
2023-03-28T14:18:02.702Z,101873.34
2023-03-28T14:20:32.661Z,101864.84
2023-03-28T14:23:02.480Z,101865.34
2023-03-28T14:25:32.265Z,101859.50
2023-03-28T14:28:10.233Z,101856.28
2023-03-28T14:30:45.288Z,101854.31
2023-03-28T14:33:22.311Z,101849.56
2023-03-28T14:36:03.006Z,101840.00
2023-03-28T14:38:36.286Z,101834.22
2023-03-28T14:41:14.802Z,101829.13
2023-03-28T14:43:44.311Z,101825.94
2023-03-28T14:46:16.588Z,101821.81
2023-03-28T14:48:45.922Z,101829.50
2023-03-28T14:51:16.560Z,101821.38
2023-03-28T14:53:48.536Z,101819.44
2023-03-28T14:56:24.878Z,101815.94
2023-03-28T14:58:57.986Z,101817.91
2023-03-28T15:01:32.176Z,101813.22
2023-03-28T15:04:08.310Z,101803.84
2023-03-28T15:06:39.515Z,101802.25
2023-03-28T15:09:13.957Z,101806.78
2023-03-28T15:11:46.689Z,101795.31
2023-03-28T15:14:19.569Z,101792.47
2023-03-28T15:16:52.050Z,101781.44
2023-03-28T15:19:25.352Z,101788.03
2023-03-28T15:21:58.485Z,101779.78
2023-03-28T15:24:29.575Z,101779.97
2023-03-28T15:27:02.129Z,101777.31
2023-03-28T15:29:36.195Z,101773.16
2023-03-28T15:32:10.553Z,101769.00
2023-03-28T15:34:50.548Z,101764.28
2023-03-28T15:37:23.255Z,101762.06
2023-03-28T15:39:53.195Z,101763.56
2023-03-28T15:42:38.987Z,101765.25
2023-03-28T15:45:23.622Z,101766.44
2023-03-28T15:47:57.399Z,101754.56
2023-03-28T15:50:34.054Z,101754.56
2023-03-28T15:53:07.216Z,101743.06
2023-03-28T15:55:37.692Z,101750.84
2023-03-28T15:58:08.121Z,101735.97
2023-03-28T16:00:40.176Z,101738.75
2023-03-28T16:03:34.817Z,101736.03
2023-03-28T16:06:31.862Z,101723.25
2023-03-28T16:09:16.979Z,101726.59
2023-03-28T16:11:47.605Z,101725.78
2023-03-28T16:14:20.551Z,101720.22
2023-03-28T16:16:50.238Z,101719.16
2023-03-28T16:19:25.326Z,101718.59
2023-03-28T16:21:54.674Z,101706.41
2023-03-28T16:24:24.417Z,101716.06
2023-03-28T16:26:53.821Z,101705.38
2023-03-28T16:29:23.305Z,101706.06
2023-03-28T16:31:52.825Z,101699.47
2023-03-28T16:34:24.882Z,101701.09
2023-03-28T16:36:56.283Z,101693.47
2023-03-28T16:39:25.889Z,101689.97
2023-03-28T16:41:55.413Z,101689.97
2023-03-28T16:44:24.759Z,101693.03
2023-03-28T16:46:55.279Z,101694.06
2023-03-28T16:49:27.275Z,101693.69
2023-03-28T16:51:56.791Z,101689.34
2023-03-28T16:54:26.756Z,101683.97
2023-03-28T16:56:57.278Z,101685.88
2023-03-28T16:59:27.145Z,101699.47
2023-03-28T17:01:57.449Z,101683.81
2023-03-28T17:04:29.959Z,101680.53
2023-03-28T17:06:59.729Z,101677.03
2023-03-28T17:09:29.284Z,101686.88
2023-03-28T17:11:58.848Z,101693.88
2023-03-28T17:14:28.225Z,101682.16
2023-03-28T17:16:57.599Z,101681.94
2023-03-28T17:19:29.795Z,101687.47
2023-03-28T17:22:00.641Z,101683.22
2023-03-28T17:24:30.168Z,101690.78
2023-03-28T17:26:59.721Z,101688.91
2023-03-28T17:29:29.037Z,101690.13
2023-03-28T17:31:58.463Z,101699.59
2023-03-28T17:34:32.020Z,101694.69
2023-03-28T17:37:01.572Z,101690.78
2023-03-28T17:39:31.393Z,101686.84
2023-03-28T17:42:00.878Z,101698.56
2023-03-28T17:44:31.048Z,101692.81
2023-03-28T17:47:00.865Z,101698.38
2023-03-28T17:49:32.908Z,101689.19
2023-03-28T17:52:02.307Z,101695.09
2023-03-28T17:54:31.804Z,101692.56
2023-03-28T17:57:01.919Z,101688.34
2023-03-28T17:59:31.837Z,101687.53
2023-03-28T18:02:01.485Z,101689.50
2023-03-28T18:04:33.555Z,101688.25
2023-03-28T18:07:02.877Z,101688.72
2023-03-28T18:09:45.847Z,101684.22
2023-03-28T18:12:16.598Z,101687.88
2023-03-28T18:14:46.573Z,101683.41
2023-03-28T18:17:16.058Z,101680.13
2023-03-28T18:19:48.679Z,101677.03
2023-03-28T18:22:18.239Z,101682.56
2023-03-28T18:24:47.600Z,101685.03
2023-03-28T18:27:19.210Z,101683.00
2023-03-28T18:29:50.202Z,101682.00
2023-03-28T18:32:19.648Z,101676.19
2023-03-28T18:34:52.374Z,101677.84
2023-03-28T18:37:21.739Z,101676.63
2023-03-28T18:39:51.238Z,101676.19
2023-03-28T18:42:20.579Z,101681.13
2023-03-28T18:44:50.187Z,101674.78
2023-03-28T18:47:20.388Z,101672.50
2023-03-28T18:49:52.468Z,101667.38
2023-03-28T18:52:21.972Z,101660.34
2023-03-28T18:54:51.325Z,101654.41
2023-03-28T18:57:20.785Z,101647.19
2023-03-28T18:59:52.846Z,101651.31
2023-03-28T19:02:23.019Z,101654.19
2023-03-28T19:04:55.073Z,101653.16
2023-03-28T19:07:24.433Z,101655.22
2023-03-28T19:09:53.879Z,101645.56
2023-03-28T19:12:23.489Z,101652.56
2023-03-28T19:14:53.059Z,101647.00
2023-03-28T19:17:22.588Z,101642.09
2023-03-28T19:19:52.015Z,101641.47
2023-03-28T19:22:23.969Z,101633.81
2023-03-28T19:24:53.594Z,101635.88
2023-03-28T19:27:23.032Z,101625.38
2023-03-28T19:29:52.401Z,101619.56
2023-03-28T19:32:22.111Z,101625.34
2023-03-28T19:34:51.822Z,101627.84
2023-03-28T19:37:23.881Z,101621.66
2023-03-28T19:39:53.288Z,101616.31
2023-03-28T19:42:22.819Z,101609.63
2023-03-28T19:44:52.164Z,101612.78
2023-03-28T19:47:21.768Z,101614.22
2023-03-28T19:49:51.421Z,101624.88
2023-03-28T19:52:20.848Z,101615.44
2023-03-28T19:54:52.819Z,101612.97
2023-03-28T19:57:22.213Z,101617.69
2023-03-28T19:59:51.802Z,101610.53
2023-03-28T20:02:21.129Z,101613.97
2023-03-28T20:04:50.494Z,101607.00
2023-03-28T20:07:21.337Z,101597.63
2023-03-28T20:09:53.322Z,101598.53
2023-03-28T20:12:23.061Z,101594.84
2023-03-28T20:14:53.867Z,101593.78
2023-03-28T20:17:24.547Z,101588.59
2023-03-28T20:19:54.056Z,101583.59
2023-03-28T20:22:24.589Z,101586.50
2023-03-28T20:24:59.582Z,101576.63
2023-03-28T20:27:29.308Z,101579.34
2023-03-28T20:29:58.802Z,101585.88
2023-03-28T20:32:28.273Z,101582.50
2023-03-28T20:34:57.754Z,101580.13
2023-03-28T20:37:27.501Z,101568.13
2023-03-28T20:40:02.580Z,101566.66
2023-03-28T20:42:32.600Z,101571.28
2023-03-28T20:45:01.930Z,101565.72
2023-03-28T20:47:31.348Z,101562.81
2023-03-28T20:50:09.031Z,101547.72
2023-03-28T20:52:40.050Z,101548.34
2023-03-28T20:55:12.366Z,101543.56
2023-03-28T20:57:43.307Z,101544.47
2023-03-28T21:00:15.008Z,101544.47
2023-03-28T21:02:46.382Z,101540.31
2023-03-28T21:05:17.215Z,101539.41
2023-03-28T21:07:46.592Z,101534.53
2023-03-28T21:10:19.382Z,101530.22
2023-03-28T21:12:49.474Z,101537.63
2023-03-28T21:15:19.297Z,101531.00
2023-03-28T21:17:53.677Z,101531.06
2023-03-28T21:20:23.477Z,101529.69
2023-03-28T21:22:53.822Z,101513.59
2023-03-28T21:25:25.771Z,101514.56
2023-03-28T21:27:55.249Z,101511.06
2023-03-28T21:30:24.678Z,101509.72
2023-03-28T21:32:54.590Z,101511.00
2023-03-28T21:35:24.032Z,101500.09
2023-03-28T21:37:53.366Z,101517.09
2023-03-28T21:40:26.151Z,101505.38
2023-03-28T21:42:55.507Z,101506.03
2023-03-28T21:45:24.912Z,101496.03
2023-03-28T21:47:54.343Z,101499.28
2023-03-28T21:50:23.791Z,101505.81
2023-03-28T21:52:53.158Z,101485.22
2023-03-28T21:55:25.099Z,101480.59
2023-03-28T21:57:54.400Z,101480.97
2023-03-28T22:00:24.374Z,101486.16
2023-03-28T22:02:54.388Z,101486.72
2023-03-28T22:05:29.788Z,101482.31
2023-03-28T22:07:59.784Z,101480.13
2023-03-28T22:10:37.675Z,101471.22
2023-03-28T22:13:07.964Z,101477.78
2023-03-28T22:15:37.474Z,101471.66
2023-03-28T22:18:09.235Z,101473.31
2023-03-28T22:20:41.145Z,101468.03
2023-03-28T22:23:10.795Z,101468.88
2023-03-28T22:25:42.761Z,101459.69
2023-03-28T22:28:14.026Z,101461.19
2023-03-28T22:30:44.120Z,101455.31
2023-03-28T22:33:13.823Z,101459.84
2023-03-28T22:35:43.476Z,101456.81
2023-03-28T22:38:12.807Z,101452.91
2023-03-28T22:40:44.721Z,101448.25
2023-03-28T22:43:14.156Z,101446.34
2023-03-28T22:45:43.569Z,101442.47
2023-03-28T22:48:14.699Z,101443.50
2023-03-28T22:50:44.590Z,101440.75
2023-03-28T22:53:14.932Z,101444.44
2023-03-28T22:55:47.272Z,101435.59
2023-03-28T22:58:17.400Z,101428.13
2023-03-28T23:00:47.711Z,101426.25
2023-03-28T23:03:18.149Z,101420.06
2023-03-28T23:05:47.775Z,101430.59
2023-03-28T23:08:17.094Z,101418.63
2023-03-28T23:10:49.223Z,101418.25
2023-03-28T23:13:19.226Z,101413.88
2023-03-28T23:15:48.718Z,101411.41
2023-03-28T23:18:18.069Z,101414.59
2023-03-28T23:20:52.361Z,101412.34
2023-03-28T23:23:21.711Z,101405.59
2023-03-28T23:25:53.659Z,101407.41
2023-03-28T23:28:23.061Z,101402.09
2023-03-28T23:30:52.438Z,101409.72
2023-03-28T23:33:21.815Z,101412.78
2023-03-28T23:35:51.243Z,101409.69
2023-03-28T23:38:20.612Z,101405.78
2023-03-28T23:40:50.077Z,101406.41
2023-03-28T23:43:21.979Z,101418.97
2023-03-28T23:45:51.654Z,101413.19
2023-03-28T23:48:21.313Z,101414.22
2023-03-28T23:50:50.714Z,101415.59
2023-03-28T23:53:20.115Z,101403.50
2023-03-28T23:55:49.410Z,101398.81
2023-03-28T23:58:18.742Z,101393.25
